Time;durP1;ratioP1;P1;durP2;ratioP2;P2;SDS_P1;SDS_P2;PMS_P1;PMS_P2;Temp;Humidity;BMP_temperature;BMP_pressure;BME280_temperature;BME280_humidity;BME280_pressure;Samples;Min_cycle;Max_cycle;Signal;HPM_P1;HPM_P2
2023/09/08 00:02:02;;;;;;;15.18;7.43;;;19.20;99.90;;;;;;5074026;28;20040;-79
2023/09/08 00:04:29;;;;;;;14.93;7.53;;;19.10;99.90;;;;;;5062672;28;20068;-79
2023/09/08 00:06:56;;;;;;;20.55;7.18;;;19.10;99.90;;;;;;5052589;28;20043;-79
2023/09/08 00:09:23;;;;;;;14.55;7.50;;;19.10;99.90;;;;;;5061606;28;20084;-79
2023/09/08 00:11:49;;;;;;;14.02;7.60;;;19.00;99.90;;;;;;5081549;28;20718;-79
2023/09/08 00:14:16;;;;;;;14.00;7.35;;;18.90;99.90;;;;;;5065365;28;20455;-79
2023/09/08 00:16:43;;;;;;;13.73;6.90;;;18.80;99.90;;;;;;5056713;28;20135;-79
2023/09/08 00:19:11;;;;;;;13.63;7.25;;;18.70;99.90;;;;;;5075966;28;20047;-79
2023/09/08 00:21:43;;;;;;;14.85;6.88;;;18.70;99.90;;;;;;5091674;28;20097;-79
2023/09/08 00:24:10;;;;;;;14.48;6.60;;;18.70;99.90;;;;;;5051038;28;20049;-80
2023/09/08 00:26:37;;;;;;;13.60;6.05;;;18.70;99.90;;;;;;5057813;28;20048;-79
2023/09/08 00:29:04;;;;;;;15.73;6.20;;;18.70;99.90;;;;;;5041438;28;20055;-79
2023/09/08 00:31:30;;;;;;;11.27;6.07;;;18.70;99.90;;;;;;5040865;28;20051;-80
2023/09/08 00:33:57;;;;;;;10.60;5.68;;;18.70;99.90;;;;;;5039933;28;20045;-79
2023/09/08 00:36:24;;;;;;;11.05;5.30;;;18.70;99.90;;;;;;5058580;28;20041;-79
2023/09/08 00:41:37;;;;;;;10.20;4.63;;;18.70;99.90;;;;;;5052835;28;20066;-79
2023/09/08 00:44:04;;;;;;;9.93;4.85;;;18.70;99.90;;;;;;5098341;28;20051;-79
2023/09/08 00:46:31;;;;;;;9.98;4.95;;;18.60;99.90;;;;;;5080179;28;20079;-79
2023/09/08 00:48:59;;;;;;;10.15;5.15;;;18.60;99.90;;;;;;5089039;28;20056;-79
2023/09/08 00:51:26;;;;;;;10.02;4.30;;;18.60;99.90;;;;;;5054836;28;20053;-79
2023/09/08 00:53:52;;;;;;;9.20;4.47;;;18.60;99.90;;;;;;5076258;28;20055;-80
2023/09/08 00:56:19;;;;;;;9.32;4.28;;;18.60;99.90;;;;;;5074112;28;20043;-78
2023/09/08 00:58:47;;;;;;;12.13;4.53;;;18.70;99.90;;;;;;5089002;28;20116;-79
2023/09/08 01:01:17;;;;;;;9.32;4.25;;;18.70;99.90;;;;;;5079410;28;20052;-79
2023/09/08 01:03:44;;;;;;;10.50;5.03;;;18.70;99.90;;;;;;5086370;28;20043;-79
2023/09/08 01:06:10;;;;;;;8.80;4.50;;;18.70;99.90;;;;;;5096668;28;20044;-79
2023/09/08 01:08:37;;;;;;;9.10;4.32;;;18.70;99.90;;;;;;5088244;28;20460;-79
2023/09/08 01:11:04;;;;;;;10.85;4.78;;;18.70;99.90;;;;;;5090791;28;20054;-79
2023/09/08 01:13:30;;;;;;;11.98;4.72;;;18.70;99.90;;;;;;5076637;28;20090;-79
2023/09/08 01:15:57;;;;;;;9.30;4.60;;;18.70;99.90;;;;;;5077584;28;20202;-78
2023/09/08 01:18:25;;;;;;;8.93;4.13;;;18.70;99.90;;;;;;5096271;28;20032;-78
2023/09/08 01:20:52;;;;;;;9.30;4.35;;;18.60;99.90;;;;;;5068207;28;20048;-80
2023/09/08 01:23:19;;;;;;;8.05;4.20;;;18.60;99.90;;;;;;5076391;28;20105;-80
2023/09/08 01:25:45;;;;;;;9.35;3.95;;;18.60;99.90;;;;;;5076850;28;20087;-79
2023/09/08 01:28:12;;;;;;;9.45;4.25;;;18.60;99.90;;;;;;5089449;28;20043;-79
2023/09/08 01:30:39;;;;;;;9.95;4.45;;;18.60;99.90;;;;;;5076347;28;20045;-79
2023/09/08 01:33:06;;;;;;;9.65;4.30;;;18.60;99.90;;;;;;5091231;28;20086;-80
2023/09/08 01:35:32;;;;;;;9.98;3.95;;;18.60;99.90;;;;;;5090993;28;20038;-80
2023/09/08 01:38:01;;;;;;;10.43;4.20;;;18.60;99.90;;;;;;5075826;28;20131;-79
2023/09/08 01:40:27;;;;;;;7.72;4.03;;;18.50;99.90;;;;;;5075265;28;20129;-79
2023/09/08 01:42:54;;;;;;;9.38;4.03;;;18.50;99.90;;;;;;5087165;28;20105;-79
2023/09/08 01:45:22;;;;;;;9.05;4.38;;;18.60;99.90;;;;;;5096518;28;20122;-80
2023/09/08 01:47:48;;;;;;;11.05;4.47;;;18.50;99.90;;;;;;5078376;28;20051;-79
2023/09/08 01:50:21;;;;;;;8.57;4.55;;;18.50;99.90;;;;;;5078917;28;20044;-79
2023/09/08 01:52:48;;;;;;;16.10;4.60;;;18.50;99.90;;;;;;5082411;28;20047;-79
2023/09/08 01:55:16;;;;;;;8.32;4.68;;;18.50;99.90;;;;;;5096457;28;20391;-79
2023/09/08 01:57:44;;;;;;;10.82;4.93;;;18.50;99.90;;;;;;5088475;28;20047;-79
2023/09/08 02:00:10;;;;;;;10.38;5.20;;;18.50;99.90;;;;;;5084038;28;20072;-79
2023/09/08 02:02:41;;;;;;;11.02;4.88;;;18.50;99.90;;;;;;5075600;28;20445;-79
2023/09/08 02:05:08;;;;;;;11.15;5.30;;;18.50;99.90;;;;;;5083068;28;20123;-78
2023/09/08 02:07:35;;;;;;;9.27;4.63;;;18.50;99.90;;;;;;5082193;28;20045;-78
2023/09/08 02:10:02;;;;;;;10.60;4.45;;;18.50;99.90;;;;;;5074632;28;20067;-79
2023/09/08 02:12:29;;;;;;;10.73;5.32;;;18.50;99.90;;;;;;5087712;28;20132;-79
2023/09/08 02:14:55;;;;;;;8.90;4.55;;;18.60;99.90;;;;;;5077791;28;20048;-79
2023/09/08 02:17:22;;;;;;;14.85;5.20;;;18.60;99.90;;;;;;5085763;28;20040;-78
2023/09/08 02:19:49;;;;;;;10.55;5.15;;;18.50;99.90;;;;;;5077010;28;20432;-79
2023/09/08 02:22:16;;;;;;;9.70;5.13;;;18.50;99.90;;;;;;5094704;28;20534;-79
2023/09/08 02:24:42;;;;;;;10.02;4.75;;;18.50;99.90;;;;;;5078548;28;20040;-79
2023/09/08 02:27:11;;;;;;;9.52;4.43;;;18.50;99.90;;;;;;5088297;28;20036;-79
2023/09/08 02:29:38;;;;;;;11.63;5.22;;;18.50;99.90;;;;;;5087996;28;20048;-79
2023/09/08 02:32:05;;;;;;;9.73;5.03;;;18.60;99.90;;;;;;5090254;28;20648;-79
2023/09/08 02:34:32;;;;;;;8.43;4.68;;;18.50;99.90;;;;;;5086890;28;20044;-79
2023/09/08 02:36:59;;;;;;;10.38;4.80;;;18.50;99.90;;;;;;5095156;28;20063;-79
2023/09/08 02:39:26;;;;;;;9.73;4.53;;;18.40;99.90;;;;;;5095382;28;20032;-79
2023/09/08 02:41:54;;;;;;;11.05;4.63;;;18.50;99.90;;;;;;5091689;28;20047;-79
2023/09/08 02:44:26;;;;;;;8.73;4.13;;;18.50;99.90;;;;;;5058261;28;20040;-79
2023/09/08 02:46:53;;;;;;;11.98;4.47;;;18.40;99.90;;;;;;5088481;28;20052;-79
2023/09/08 02:49:20;;;;;;;8.25;4.20;;;18.40;99.90;;;;;;5081520;28;20047;-79
2023/09/08 02:51:47;;;;;;;9.48;4.38;;;18.40;99.90;;;;;;5085233;28;20138;-78
2023/09/08 02:54:13;;;;;;;9.48;4.95;;;18.40;99.90;;;;;;5090287;28;20036;-78
2023/09/08 02:56:40;;;;;;;11.82;4.72;;;18.40;99.90;;;;;;5096547;28;20039;-79
2023/09/08 02:59:08;;;;;;;12.20;4.40;;;18.40;99.90;;;;;;5095550;28;20068;-78
2023/09/08 03:01:36;;;;;;;9.05;4.45;;;18.40;99.90;;;;;;5073765;28;20089;-78
2023/09/08 03:04:03;;;;;;;7.90;3.90;;;18.40;99.90;;;;;;5086776;28;20048;-79
2023/09/08 03:06:31;;;;;;;8.70;4.68;;;18.40;99.90;;;;;;5075552;28;20131;-79
2023/09/08 03:08:58;;;;;;;11.55;4.75;;;18.40;99.90;;;;;;5084360;28;20051;-78
2023/09/08 03:11:25;;;;;;;10.00;4.78;;;18.40;99.90;;;;;;5063402;28;20059;-79
2023/09/08 03:13:52;;;;;;;10.13;4.43;;;18.40;99.90;;;;;;5093474;28;20477;-79
2023/09/08 03:16:19;;;;;;;8.75;4.35;;;18.30;99.90;;;;;;5095770;28;20036;-78
2023/09/08 03:18:48;;;;;;;9.45;4.70;;;18.30;99.90;;;;;;5087898;28;20037;-78
2023/09/08 03:21:15;;;;;;;9.77;4.47;;;18.30;99.90;;;;;;5073195;28;20075;-79
2023/09/08 03:23:43;;;;;;;9.07;4.43;;;18.20;99.90;;;;;;5080121;28;20044;-78
2023/09/08 03:26:09;;;;;;;10.85;4.50;;;18.20;99.90;;;;;;5082689;28;20040;-78
2023/09/08 03:28:38;;;;;;;8.30;4.25;;;18.20;99.90;;;;;;5077470;28;20052;-78
2023/09/08 03:31:05;;;;;;;7.93;3.97;;;18.20;99.90;;;;;;5095139;28;20039;-78
2023/09/08 03:33:33;;;;;;;8.02;4.25;;;18.20;99.90;;;;;;5073382;28;20048;-78
2023/09/08 03:36:01;;;;;;;9.25;4.10;;;18.20;99.90;;;;;;5083428;28;20062;-78
2023/09/08 03:38:29;;;;;;;8.95;4.10;;;18.20;99.90;;;;;;5078406;28;20069;-80
2023/09/08 03:40:56;;;;;;;8.98;3.58;;;18.20;99.90;;;;;;5077547;28;20048;-79
2023/09/08 03:43:24;;;;;;;8.27;4.00;;;18.10;99.90;;;;;;5085129;28;20051;-80
2023/09/08 03:45:50;;;;;;;9.77;4.15;;;18.10;99.90;;;;;;5093914;28;20071;-79
2023/09/08 03:48:19;;;;;;;7.78;3.65;;;18.10;99.90;;;;;;5094001;28;20040;-79
2023/09/08 03:50:46;;;;;;;9.02;4.22;;;18.10;99.90;;;;;;5092261;28;20130;-80
2023/09/08 03:53:14;;;;;;;8.23;3.83;;;18.00;99.90;;;;;;5049390;28;20044;-80
2023/09/08 03:55:40;;;;;;;9.38;4.00;;;18.10;99.90;;;;;;5020610;28;20033;-79
2023/09/08 03:58:07;;;;;;;8.48;4.07;;;18.00;99.90;;;;;;5037170;28;20041;-79
2023/09/08 04:00:34;;;;;;;8.35;4.05;;;18.10;99.90;;;;;;5036178;28;20045;-79
2023/09/08 04:03:01;;;;;;;9.15;4.40;;;18.10;99.90;;;;;;5020670;28;20040;-80
2023/09/08 04:05:28;;;;;;;10.38;4.10;;;18.00;99.90;;;;;;5036901;28;20041;-80
2023/09/08 04:07:55;;;;;;;8.00;3.90;;;18.10;99.90;;;;;;5022275;28;20107;-79
2023/09/08 04:10:22;;;;;;;9.00;4.35;;;18.10;99.90;;;;;;5048479;28;20052;-79
2023/09/08 04:12:49;;;;;;;8.50;4.07;;;18.10;99.90;;;;;;5021224;28;20379;-78
2023/09/08 04:15:15;;;;;;;9.27;4.22;;;18.10;99.90;;;;;;5062973;28;20032;-80
2023/09/08 04:17:44;;;;;;;8.13;4.13;;;18.10;99.90;;;;;;5049312;28;20422;-80
2023/09/08 04:20:14;;;;;;;8.77;3.63;;;18.00;99.90;;;;;;5030603;28;20508;-79
2023/09/08 04:22:41;;;;;;;9.07;4.50;;;18.00;99.90;;;;;;5065292;28;20139;-79
2023/09/08 04:25:07;;;;;;;9.88;4.03;;;18.00;99.90;;;;;;5060564;28;20070;-79
2023/09/08 04:27:36;;;;;;;11.18;3.97;;;17.90;99.90;;;;;;5056302;28;20045;-79
2023/09/08 04:30:04;;;;;;;7.50;4.13;;;17.90;99.90;;;;;;5036518;28;20041;-79
2023/09/08 04:32:30;;;;;;;9.48;3.80;;;18.00;99.90;;;;;;5045481;28;20044;-79
2023/09/08 04:34:57;;;;;;;7.95;3.88;;;17.90;99.90;;;;;;5041009;28;20041;-79
2023/09/08 04:37:25;;;;;;;7.88;3.78;;;17.90;99.90;;;;;;5020913;28;20041;-79
2023/09/08 04:39:52;;;;;;;9.73;4.35;;;17.90;99.90;;;;;;5054055;28;20069;-79
2023/09/08 04:42:19;;;;;;;12.52;4.10;;;17.80;99.90;;;;;;5064033;28;20041;-78
2023/09/08 04:44:45;;;;;;;7.28;3.78;;;17.80;99.90;;;;;;5020930;28;20375;-79
2023/09/08 04:47:16;;;;;;;7.82;3.88;;;17.90;99.90;;;;;;5067950;28;20044;-79
2023/09/08 04:49:42;;;;;;;8.02;3.88;;;17.80;99.90;;;;;;5066448;28;20459;-78
2023/09/08 04:52:11;;;;;;;8.13;3.75;;;17.80;99.90;;;;;;5061072;28;20053;-78
2023/09/08 04:54:37;;;;;;;7.85;3.10;;;17.70;99.90;;;;;;5035502;28;20033;-78
2023/09/08 04:57:04;;;;;;;9.40;4.15;;;17.80;99.90;;;;;;5047448;28;20036;-81
2023/09/08 04:59:49;;;;;;;9.13;3.72;;;17.80;99.90;;;;;;5050671;28;20119;-78
2023/09/08 05:02:18;;;;;;;8.85;4.22;;;17.80;99.90;;;;;;5053484;28;20041;-79
2023/09/08 05:04:45;;;;;;;8.18;3.50;;;17.70;99.90;;;;;;5048347;28;20047;-79
2023/09/08 05:07:13;;;;;;;6.85;3.33;;;17.70;99.90;;;;;;5048712;28;20040;-79
2023/09/08 05:09:40;;;;;;;7.82;3.33;;;17.80;99.90;;;;;;5059659;28;20059;-79
2023/09/08 05:12:07;;;;;;;7.15;3.40;;;17.80;99.90;;;;;;5059748;28;20045;-79
2023/09/08 05:14:34;;;;;;;7.88;3.60;;;17.80;99.90;;;;;;5044506;28;20095;-79
2023/09/08 05:17:01;;;;;;;11.07;3.83;;;17.80;99.90;;;;;;5047361;28;20058;-79
2023/09/08 05:19:29;;;;;;;7.60;3.38;;;17.80;99.90;;;;;;5046312;28;20045;-79
2023/09/08 05:21:56;;;;;;;6.97;3.25;;;17.80;99.90;;;;;;5058342;28;20040;-79
2023/09/08 05:24:25;;;;;;;10.45;4.13;;;17.80;99.90;;;;;;5059848;28;20071;-79
2023/09/08 05:26:52;;;;;;;9.00;3.80;;;17.90;99.90;;;;;;5044604;28;20509;-79
2023/09/08 05:29:19;;;;;;;9.60;4.15;;;17.90;99.90;;;;;;5059707;28;20048;-80
2023/09/08 05:31:47;;;;;;;10.93;4.15;;;17.90;99.90;;;;;;5059719;28;20051;-80
2023/09/08 05:34:14;;;;;;;8.75;4.00;;;17.90;99.90;;;;;;5049888;28;20041;-80
2023/09/08 05:36:42;;;;;;;7.60;3.78;;;17.90;99.90;;;;;;5054523;28;20048;-79
2023/09/08 05:39:11;;;;;;;10.52;3.80;;;17.90;99.90;;;;;;5059237;28;20037;-79
2023/09/08 05:41:37;;;;;;;9.48;3.70;;;17.90;99.90;;;;;;5045308;28;20533;-78
2023/09/08 05:44:05;;;;;;;9.60;3.42;;;18.00;99.90;;;;;;5039603;28;20048;-79
2023/09/08 05:46:32;;;;;;;11.18;3.92;;;18.00;99.90;;;;;;5023437;28;20045;-78
2023/09/08 05:49:00;;;;;;;9.38;3.55;;;18.00;99.90;;;;;;5038297;28;20124;-79
2023/09/08 05:51:30;;;;;;;9.02;4.00;;;18.00;99.90;;;;;;5051528;28;20044;-79
2023/09/08 05:53:57;;;;;;;11.80;3.92;;;18.10;99.90;;;;;;5088564;28;20076;-79
2023/09/08 05:56:24;;;;;;;9.10;3.88;;;18.00;99.90;;;;;;5076569;28;20128;-78
2023/09/08 05:58:52;;;;;;;8.63;4.18;;;18.10;99.90;;;;;;5067016;28;20098;-79
2023/09/08 06:01:19;;;;;;;7.85;3.80;;;18.20;99.90;;;;;;5088920;28;20047;-78
2023/09/08 06:03:49;;;;;;;8.48;3.65;;;18.30;99.90;;;;;;5075505;28;20055;-78
2023/09/08 06:06:16;;;;;;;8.15;3.65;;;18.30;99.90;;;;;;5089779;28;20071;-79
2023/09/08 06:08:43;;;;;;;8.02;3.70;;;18.40;99.90;;;;;;5074932;28;20087;-79
2023/09/08 06:11:09;;;;;;;7.97;3.92;;;18.50;99.90;;;;;;5089741;28;20036;-78
2023/09/08 06:13:36;;;;;;;10.63;4.00;;;18.60;99.90;;;;;;5080272;28;20047;-78
2023/09/08 06:16:03;;;;;;;9.68;3.97;;;18.70;99.90;;;;;;5082118;28;20064;-79
2023/09/08 06:18:39;;;;;;;10.75;3.80;;;18.80;99.90;;;;;;5075073;28;20352;-79
2023/09/08 06:21:09;;;;;;;7.28;3.33;;;19.00;99.90;;;;;;5087743;28;20460;-79
2023/09/08 06:23:36;;;;;;;7.57;3.80;;;19.10;99.90;;;;;;5076142;28;20032;-79
2023/09/08 06:26:04;;;;;;;8.35;3.80;;;19.10;99.90;;;;;;5075726;28;20097;-80
2023/09/08 06:28:35;;;;;;;8.68;4.03;;;19.10;99.90;;;;;;5078488;28;20043;-79
2023/09/08 06:31:02;;;;;;;7.18;3.33;;;19.10;99.90;;;;;;5095113;28;20459;-79
2023/09/08 06:33:30;;;;;;;12.02;4.20;;;19.20;99.90;;;;;;5094411;28;20110;-78
2023/09/08 06:35:57;;;;;;;9.07;3.72;;;19.20;99.90;;;;;;5086550;28;20086;-78
2023/09/08 06:38:25;;;;;;;8.82;4.10;;;19.40;99.90;;;;;;5075293;28;20043;-82
2023/09/08 06:40:53;;;;;;;9.43;4.57;;;19.50;99.90;;;;;;5082441;28;20118;-81
2023/09/08 06:43:20;;;;;;;7.80;3.90;;;19.60;99.90;;;;;;5081087;28;20041;-81
2023/09/08 06:45:57;;;;;;;9.05;4.00;;;19.70;99.90;;;;;;5074835;28;20386;-82
2023/09/08 06:51:14;;;;;;;8.98;4.13;;;19.80;99.90;;;;;;5079362;28;20379;-80
2023/09/08 06:53:40;;;;;;;8.88;3.80;;;19.90;99.90;;;;;;5095007;28;20032;-81
2023/09/08 06:56:07;;;;;;;9.63;4.10;;;20.00;99.90;;;;;;5094931;28;20036;-81
2023/09/08 07:01:19;;;;;;;9.18;4.05;;;20.20;99.90;;;;;;5076604;28;20036;-81
2023/09/08 07:03:46;;;;;;;11.52;4.35;;;20.40;99.90;;;;;;5073809;28;20037;-80
2023/09/08 07:06:14;;;;;;;9.75;4.35;;;20.50;99.90;;;;;;5075509;28;20060;-81
2023/09/08 07:08:41;;;;;;;9.85;4.30;;;20.60;99.90;;;;;;5082853;28;20040;-82
2023/09/08 07:11:08;;;;;;;12.13;4.18;;;20.70;99.90;;;;;;5080399;28;20588;-82
2023/09/08 07:13:36;;;;;;;8.38;4.20;;;20.80;99.90;;;;;;5073587;28;20944;-81
2023/09/08 07:16:03;;;;;;;11.90;4.68;;;20.80;99.90;;;;;;5071173;28;20036;-81
2023/09/08 07:18:35;;;;;;;8.90;3.72;;;20.80;99.90;;;;;;5074968;28;20064;-81
2023/09/08 07:21:03;;;;;;;9.40;4.38;;;20.90;99.90;;;;;;5073414;28;20079;-80
2023/09/08 07:23:31;;;;;;;10.90;4.30;;;21.00;99.90;;;;;;5072553;28;20045;-81
2023/09/08 07:25:58;;;;;;;9.05;4.45;;;21.10;99.90;;;;;;5081561;28;20040;-81
2023/09/08 07:28:31;;;;;;;9.52;4.38;;;21.10;99.90;;;;;;5069902;28;20459;-81
2023/09/08 07:31:01;;;;;;;12.05;4.32;;;21.20;99.90;;;;;;5081778;28;20044;-81
2023/09/08 07:33:30;;;;;;;11.15;4.13;;;21.30;99.90;;;;;;5070883;28;20040;-81
2023/09/08 07:35:57;;;;;;;9.60;4.28;;;21.50;99.90;;;;;;5074191;28;20044;-82
2023/09/08 07:38:25;;;;;;;10.95;4.75;;;21.60;99.90;;;;;;5089102;28;20044;-80
2023/09/08 07:40:51;;;;;;;9.45;4.18;;;21.60;99.90;;;;;;5085731;28;20421;-80
2023/09/08 07:43:18;;;;;;;10.05;4.40;;;21.60;99.90;;;;;;5075012;28;20053;-82
2023/09/08 07:45:45;;;;;;;10.55;4.47;;;21.60;99.90;;;;;;5093417;28;20040;-81
2023/09/08 07:48:13;;;;;;;15.15;4.15;;;21.70;99.90;;;;;;5094040;28;20462;-82
2023/09/08 07:50:40;;;;;;;11.13;4.22;;;21.70;99.90;;;;;;5092521;28;20044;-80
2023/09/08 07:53:06;;;;;;;9.88;4.25;;;21.80;99.90;;;;;;5054698;28;20102;-81
2023/09/08 07:55:33;;;;;;;13.40;4.35;;;21.90;99.90;;;;;;5053858;28;20135;-81
2023/09/08 07:58:01;;;;;;;9.73;4.35;;;22.10;99.90;;;;;;5054526;28;20037;-81
2023/09/08 08:00:28;;;;;;;10.88;4.70;;;22.20;99.90;;;;;;5053867;28;20064;-83
2023/09/08 08:02:54;;;;;;;11.73;4.82;;;22.40;99.90;;;;;;5044972;28;20114;-83
2023/09/08 08:05:21;;;;;;;12.75;4.40;;;22.60;99.90;;;;;;5049723;28;20041;-89
2023/09/08 08:07:49;;;;;;;14.00;4.63;;;22.80;99.90;;;;;;5064217;28;20072;-83
2023/09/08 08:10:16;;;;;;;9.55;4.80;;;23.00;99.90;;;;;;5054032;28;20435;-84
2023/09/08 08:12:43;;;;;;;8.73;4.60;;;23.10;99.90;;;;;;5020115;28;20048;-85
2023/09/08 08:15:12;;;;;;;10.13;4.40;;;23.30;99.90;;;;;;5065975;28;20125;-85
2023/09/08 08:17:40;;;;;;;9.38;4.60;;;23.50;99.90;;;;;;5040448;28;20447;-82
2023/09/08 08:20:09;;;;;;;16.60;5.18;;;23.50;99.90;;;;;;5042852;28;20036;-81
2023/09/08 08:22:36;;;;;;;15.20;4.65;;;23.50;99.90;;;;;;5074284;28;20079;-80
2023/09/08 08:25:03;;;;;;;17.10;5.25;;;23.70;99.90;;;;;;5028294;28;20120;-81
2023/09/08 08:30:16;;;;;;;12.82;4.45;;;23.80;99.90;;;;;;5059803;28;20106;-83
2023/09/08 08:32:42;;;;;;;10.25;5.43;;;23.80;99.90;;;;;;5074176;28;20037;-82
2023/09/08 08:35:09;;;;;;;12.02;5.65;;;23.80;99.90;;;;;;5053427;28;20044;-80
2023/09/08 08:37:37;;;;;;;10.35;5.18;;;23.90;99.90;;;;;;5045179;28;20040;-80
2023/09/08 08:40:04;;;;;;;13.05;5.57;;;24.00;99.90;;;;;;5060022;28;20072;-81
2023/09/08 08:42:31;;;;;;;25.80;5.28;;;24.10;99.90;;;;;;5077706;28;20123;-81
2023/09/08 08:44:57;;;;;;;11.38;4.95;;;24.20;99.90;;;;;;5059987;28;20060;-80
2023/09/08 08:47:25;;;;;;;13.55;5.03;;;24.30;99.90;;;;;;5059343;28;20127;-81
2023/09/08 08:49:52;;;;;;;10.77;4.97;;;24.40;99.90;;;;;;5060084;28;20451;-80
2023/09/08 08:52:19;;;;;;;17.65;5.45;;;24.50;99.90;;;;;;5077675;28;20048;-80
2023/09/08 08:54:46;;;;;;;11.23;4.35;;;24.60;99.90;;;;;;5062829;28;20090;-82
2023/09/08 08:57:13;;;;;;;11.48;5.80;;;24.60;99.90;;;;;;5065489;28;20474;-82
2023/09/08 08:59:41;;;;;;;12.85;5.15;;;24.70;99.90;;;;;;5061476;28;20047;-81
2023/09/08 09:02:08;;;;;;;11.70;5.50;;;24.80;99.90;;;;;;5076605;28;20052;-80
2023/09/08 09:04:34;;;;;;;15.63;5.40;;;25.00;99.90;;;;;;5074439;28;20075;-81
2023/09/08 09:07:01;;;;;;;10.75;5.20;;;25.20;99.90;;;;;;5056572;28;20084;-81
2023/09/08 09:09:28;;;;;;;10.43;5.03;;;25.20;99.90;;;;;;5058034;28;20106;-81
2023/09/08 09:11:54;;;;;;;12.20;5.10;;;25.40;99.90;;;;;;5070107;28;20456;-82
2023/09/08 09:14:22;;;;;;;9.60;5.28;;;25.60;99.90;;;;;;5056388;28;20041;-81
2023/09/08 09:16:49;;;;;;;12.60;5.70;;;25.90;99.90;;;;;;5053643;28;20060;-81
2023/09/08 09:19:18;;;;;;;10.55;4.68;;;26.10;99.90;;;;;;5068495;28;20124;-81
2023/09/08 09:21:44;;;;;;;11.32;5.25;;;26.50;99.90;;;;;;5044817;28;20040;-81
2023/09/08 09:24:11;;;;;;;16.05;5.40;;;26.80;99.90;;;;;;5067219;28;20049;-82
2023/09/08 09:26:38;;;;;;;12.05;5.07;;;26.80;99.90;;;;;;5055974;28;20072;-82
2023/09/08 09:29:06;;;;;;;11.38;5.03;;;26.70;99.90;;;;;;5065146;28;20048;-82
2023/09/08 09:31:32;;;;;;;11.73;5.07;;;26.80;99.90;;;;;;5076233;28;20529;-83
2023/09/08 09:33:59;;;;;;;11.63;5.18;;;26.90;99.90;;;;;;5042372;28;20441;-83
2023/09/08 09:36:26;;;;;;;10.13;4.38;;;26.90;99.90;;;;;;5052009;28;20507;-82
2023/09/08 09:38:54;;;;;;;12.77;4.90;;;27.00;99.90;;;;;;5071664;28;20090;-84
2023/09/08 09:41:20;;;;;;;15.52;5.10;;;27.30;99.90;;;;;;5049533;28;20055;-84
2023/09/08 09:43:47;;;;;;;10.48;4.72;;;27.40;99.90;;;;;;5062754;28;20127;-83
2023/09/08 09:46:14;;;;;;;8.05;4.70;;;27.60;99.90;;;;;;5042634;28;20036;-83
2023/09/08 09:48:42;;;;;;;14.07;4.78;;;27.80;99.90;;;;;;5057696;28;20048;-84
2023/09/08 09:51:08;;;;;;;8.88;4.15;;;28.10;99.90;;;;;;5058468;28;20519;-83
2023/09/08 09:53:35;;;;;;;9.13;4.43;;;28.30;99.90;;;;;;5057906;28;20051;-82
2023/09/08 09:56:02;;;;;;;10.90;4.80;;;28.30;99.90;;;;;;5056533;28;20040;-83
2023/09/08 09:58:30;;;;;;;11.27;4.40;;;28.30;99.90;;;;;;5047089;28;20049;-83
2023/09/08 10:00:57;;;;;;;11.00;4.60;;;28.40;99.90;;;;;;5064596;28;20116;-83
2023/09/08 10:03:24;;;;;;;10.80;4.78;;;28.30;99.90;;;;;;5038887;28;20049;-87
2023/09/08 10:05:51;;;;;;;9.65;4.40;;;28.70;99.90;;;;;;5051602;28;20478;-85
2023/09/08 10:08:18;;;;;;;13.20;4.65;;;29.20;99.90;;;;;;5038785;28;20045;-81
2023/09/08 10:10:45;;;;;;;11.32;4.57;;;29.30;99.90;;;;;;5067312;28;20041;-83
2023/09/08 10:13:12;;;;;;;15.40;4.72;;;29.50;99.90;;;;;;5050653;28;20044;-84
2023/09/08 10:15:39;;;;;;;10.98;4.40;;;29.50;99.90;;;;;;5030850;28;20448;-84
2023/09/08 10:18:06;;;;;;;10.27;4.78;;;29.60;99.90;;;;;;5074568;28;20502;-84
2023/09/08 10:20:33;;;;;;;9.65;4.22;;;29.40;99.90;;;;;;5037453;28;20110;-87
2023/09/08 10:23:00;;;;;;;11.32;5.13;;;29.10;99.90;;;;;;5049882;28;20064;-83
2023/09/08 10:25:29;;;;;;;10.95;4.50;;;29.10;99.90;;;;;;5057644;28;20048;-81
2023/09/08 10:27:56;;;;;;;9.57;4.88;;;29.00;99.90;;;;;;5074955;28;20044;-81
2023/09/08 10:30:23;;;;;;;11.70;5.13;;;28.90;99.90;;;;;;5043857;28;20067;-80
2023/09/08 10:32:49;;;;;;;15.23;4.35;;;28.90;99.90;;;;;;5058058;28;20036;-84
2023/09/08 10:35:17;;;;;;;12.30;5.00;;;28.90;99.90;;;;;;5057288;28;20043;-84
2023/09/08 10:37:44;;;;;;;13.30;4.80;;;28.90;99.90;;;;;;5067775;28;20394;-83
2023/09/08 10:40:10;;;;;;;11.50;4.70;;;28.90;99.90;;;;;;5074122;28;20041;-82
2023/09/08 10:42:38;;;;;;;11.52;4.82;;;28.90;99.90;;;;;;5075397;28;20097;-84
2023/09/08 10:45:04;;;;;;;8.48;4.25;;;29.10;99.90;;;;;;5075521;28;20071;-84
2023/09/08 10:47:36;;;;;;;12.05;4.47;;;29.40;99.90;;;;;;5074372;28;20047;-84
2023/09/08 10:50:05;;;;;;;12.48;4.30;;;29.80;99.90;;;;;;5057674;28;20055;-84
2023/09/08 10:52:33;;;;;;;9.75;4.63;;;29.70;99.90;;;;;;5085264;28;20131;-86
2023/09/08 10:55:01;;;;;;;11.95;4.80;;;29.80;99.90;;;;;;5081027;28;20131;-83
2023/09/08 10:57:32;;;;;;;9.65;4.60;;;30.00;99.90;;;;;;5095722;28;20044;-83
2023/09/08 11:00:17;;;;;;;8.38;4.35;;;30.10;99.90;;;;;;5080014;28;20417;-84
2023/09/08 11:02:45;;;;;;;9.52;4.75;;;30.20;99.90;;;;;;5094747;28;20048;-83
2023/09/08 11:05:15;;;;;;;9.55;4.28;;;30.30;99.90;;;;;;5094493;28;20111;-84
2023/09/08 11:10:28;;;;;;;9.85;4.07;;;30.70;99.90;;;;;;5086054;28;20052;-86
2023/09/08 11:12:55;;;;;;;12.13;4.00;;;31.10;99.90;;;;;;5069144;28;20374;-84
2023/09/08 11:15:21;;;;;;;9.45;3.72;;;31.40;99.90;;;;;;5080384;28;20425;-85
2023/09/08 11:17:51;;;;;;;10.23;3.90;;;31.50;99.90;;;;;;5094065;28;20127;-86
2023/09/08 11:20:18;;;;;;;;;;;31.70;99.90;;;;;;5075852;28;20501;-86
2023/09/08 11:22:46;;;;;;;7.03;3.60;;;31.70;99.90;;;;;;5086250;28;19920;-85
2023/09/08 11:25:13;;;;;;;10.65;3.83;;;31.70;99.90;;;;;;5083093;28;20123;-85
2023/09/08 11:27:40;;;;;;;11.48;3.83;;;31.80;99.90;;;;;;5073071;28;20036;-85
2023/09/08 11:30:07;;;;;;;9.98;3.60;;;31.80;99.90;;;;;;5086307;28;20070;-86
2023/09/08 11:32:34;;;;;;;8.23;3.55;;;32.30;99.90;;;;;;5069380;28;20479;-84
2023/09/08 11:35:00;;;;;;;8.10;3.70;;;32.70;99.90;;;;;;5076912;28;20090;-84
2023/09/08 11:37:29;;;;;;;9.93;4.00;;;32.60;99.90;;;;;;5074842;28;20111;-82
2023/09/08 11:39:56;;;;;;;11.13;4.22;;;32.50;99.90;;;;;;5087224;28;20132;-82
2023/09/08 11:42:24;;;;;;;8.25;3.70;;;32.40;99.90;;;;;;5074629;28;20371;-82
2023/09/08 11:44:51;;;;;;;10.50;3.90;;;32.40;99.90;;;;;;5080337;28;20097;-82
2023/09/08 11:47:19;;;;;;;10.98;3.97;;;32.70;99.90;;;;;;5088426;28;20143;-83
2023/09/08 11:49:45;;;;;;;6.97;3.60;;;33.00;99.90;;;;;;5074504;28;20044;-83
2023/09/08 11:52:12;;;;;;;10.60;3.92;;;33.00;99.90;;;;;;5073477;28;20411;-82
2023/09/08 11:54:39;;;;;;;9.25;3.65;;;32.90;99.90;;;;;;5075785;28;20097;-81
2023/09/08 11:57:26;;;;;;;8.50;3.85;;;33.20;99.90;;;;;;5085146;28;20058;-83
2023/09/08 11:59:52;;;;;;;9.60;3.70;;;33.10;99.90;;;;;;5087026;28;20046;-79
2023/09/08 12:02:19;;;;;;;7.97;3.78;;;32.90;99.90;;;;;;5080423;28;20078;-81
2023/09/08 12:04:45;;;;;;;9.80;4.07;;;33.00;99.90;;;;;;5078142;28;20040;-82
2023/09/08 12:07:16;;;;;;;10.95;3.67;;;33.30;99.90;;;;;;5075542;28;20071;-80
2023/09/08 12:09:42;;;;;;;;;;;33.60;99.90;;;;;;5094394;28;20113;-80
2023/09/08 12:12:09;;;;;;;10.10;3.63;;;33.70;99.90;;;;;;5094632;28;19923;-78
2023/09/08 12:14:36;;;;;;;9.48;3.88;;;33.70;99.90;;;;;;5093697;28;20032;-79
2023/09/08 12:17:02;;;;;;;6.60;3.72;;;33.70;99.90;;;;;;5097289;28;20465;-80
2023/09/08 12:19:32;;;;;;;7.85;3.95;;;33.30;99.90;;;;;;5092387;28;20052;-80
2023/09/08 12:21:59;;;;;;;11.93;3.80;;;33.40;99.90;;;;;;5089255;28;20036;-83
2023/09/08 12:24:26;;;;;;;9.85;3.88;;;33.50;99.90;;;;;;5085514;28;20044;-79
2023/09/08 12:26:52;;;;;;;9.30;3.67;;;33.50;99.90;;;;;;5095443;28;20075;-83
2023/09/08 12:29:22;;;;;;;7.95;3.97;;;33.50;99.90;;;;;;5094009;28;20043;-79
2023/09/08 12:31:49;;;;;;;9.70;3.78;;;33.60;99.90;;;;;;5096956;28;20087;-81
2023/09/08 12:34:16;;;;;;;8.10;3.65;;;33.50;99.90;;;;;;5097126;28;20036;-81
2023/09/08 12:36:43;;;;;;;9.60;4.10;;;33.40;99.90;;;;;;5083104;28;20127;-80
2023/09/08 12:39:11;;;;;;;10.38;4.15;;;33.30;99.90;;;;;;5097829;28;20039;-81
2023/09/08 12:41:38;;;;;;;9.50;3.67;;;33.20;99.90;;;;;;5097072;28;20127;-82
2023/09/08 12:44:04;;;;;;;8.02;3.70;;;33.80;99.90;;;;;;5082428;28;20046;-80
2023/09/08 12:46:32;;;;;;;6.93;3.85;;;34.10;99.90;;;;;;5085338;28;20120;-81
2023/09/08 12:48:59;;;;;;;7.28;3.70;;;34.70;99.90;;;;;;5090924;28;20481;-79
2023/09/08 12:51:26;;;;;;;9.55;4.05;;;34.70;99.90;;;;;;5087042;28;20146;-82
2023/09/08 12:53:52;;;;;;;10.43;3.70;;;34.90;99.90;;;;;;5076449;28;20123;-80
2023/09/08 12:56:19;;;;;;;9.98;3.63;;;34.80;99.90;;;;;;5096284;28;20055;-79
2023/09/08 12:58:46;;;;;;;9.75;3.90;;;34.90;99.90;;;;;;5091291;28;20382;-80